Yorkton Municipal Airport
CYQV : now visible

Airfield :











YOU CAN JOIN US ON...

 
LOGIN :

Register | Disclaimer

   EN    FR    IT 

 









Legend :    VFR   Marginal VFR   IFR   Intensive IFR   Very Intensive IFR
Visi :
Ceiling :
>= 8 km
>= 3000ft
5 to 8 km
1000 to 3000 ft
1500m to 5 km
500 to 1000 ft
800 to 1500m
200 to 500 ft
< 800m
< 200 ft
Symbols :   Thunderstorms  Fog  Heavy snow  Heavy precipitations  Wind > 20 kt






- Airport Elevation : 1635 ft
- IATA code : YQV


CYQV - Yorkton Municipal

CURRENT METAR :
  • 280020Z AUTO 21006KT 9SM FEW032 SCT044 BKN060 OVC120 04/03 A2952 RMK SLP022

EXPIRED METARs :
  • 280003Z AUTO 23005KT 9SM -RA SCT036 BKN045 BKN055 OVC120 05/03 A2952 RMK SLP023
  • 272300Z AUTO 30008G15KT 9SM SCT020 BKN029 OVC120 05/03 A2953 RMK SLP026
  • 272200Z AUTO 30012G18KT 9SM OVC018 05/03 A2951 RMK SLP019

TAF TAF CYQV
Valid from the 28 at 00:00 until the 28 at 06:00 UTC


272341Z 2800/2806 30010G20KT P6SM BKN030
TEMPO 2800/2804 5SM -RA BR OVC020
FM280400 28010KT P6SM BKN030 RMK FCST BASED ON AUTO OBS. NXT FCST WILL BE ISSUED AT 281145Z
CZWG FIR / North America



MET'MAP, your aeronautical weather chart ! - Copyright ORBIFLY December 2007 - Disclaimer

ORBIFLY MET'MAP TEAM :

Programming & Development : Alexandra Zaïnal
Concept & original design : Baudouin d'Aumeries
Assistance for programming : Marc-Olivier Méhu
Technical & hardware support : Manuel Goepfert

Contact : metmap@orbifly.com




SOURCES & CREDITS :

   NOAA       Earth
Advisory